East Vineland, New Jersey
Current Conditions -  °F | °C
As of 1:54 PM on Saturday 20 Dec 2014 (Local Time) from KMIV Reporting Station
Overcast Overcast  
Wind Chill: 34°   Ceiling: 2900
Heat Index: 34°   Visibility: 10mi
Dew Point: 24°   Wind: 3mph
Humidity: 67%   Direction: 60°ENE
Pressure: 30.26"   Gusts: NA
Location:  39.5016°N, 75.0264°W
Report Text: KMIV 201854Z AUTO 06003KT 10SM OVC029 01/M04 A3026 RMK AO2 SLP245 T00111044
Loading
Personal Weather Stations






























Interactive Weather Map New forecast layout! Learn more

10-Day Weather Forecast

Advertisements
Track Severe Weather on mobile